Time;durP1;ratioP1;P1;durP2;ratioP2;P2;SDS_P1;SDS_P2;PMS_P1;PMS_P2;Temp;Humidity;BMP_temperature;BMP_pressure;BME280_temperature;BME280_humidity;BME280_pressure;Samples;Min_cycle;Max_cycle;Signal;HPM_P1;HPM_P2
2023/09/09 00:00:52;;;;;;;9.03;7.50;;;;;;;;;;4956477;28;20448;-64
2023/09/09 00:03:18;;;;;;;7.80;7.10;;;;;;;;;;4955993;28;20423;-64
2023/09/09 00:05:44;;;;;;;9.00;8.13;;;;;;;;;;4954817;28;20440;-64
2023/09/09 00:08:10;;;;;;;8.37;7.27;;;;;;;;;;4956247;28;20438;-64
2023/09/09 00:10:37;;;;;;;8.20;7.50;;;;;;;;;;4954986;28;20512;-64
2023/09/09 00:13:06;;;;;;;7.87;7.20;;;;;;;;;;4956148;28;20422;-65
2023/09/09 00:15:34;;;;;;;9.50;8.40;;;;;;;;;;4956372;28;20426;-64
2023/09/09 00:18:02;;;;;;;9.63;8.83;;;;;;;;;;4955935;28;20463;-64
2023/09/09 00:20:39;;;;;;;13.37;8.77;;;;;;;;;;4956196;28;20428;-64
2023/09/09 00:23:07;;;;;;;10.83;8.13;;;;;;;;;;4955818;28;20469;-64
2023/09/09 00:25:41;;;;;;;8.60;7.20;;;;;;;;;;4956084;28;20864;-64
2023/09/09 00:28:11;;;;;;;11.40;8.40;;;;;;;;;;4955877;28;20407;-64
2023/09/09 00:30:37;;;;;;;9.20;8.37;;;;;;;;;;4955853;28;20419;-64
2023/09/09 00:33:03;;;;;;;9.90;9.00;;;;;;;;;;4955564;28;20429;-64
2023/09/09 00:35:32;;;;;;;9.97;8.50;;;;;;;;;;4954544;28;20452;-64
2023/09/09 00:37:58;;;;;;;10.30;7.57;;;;;;;;;;4955860;28;20791;-64
2023/09/09 00:40:26;;;;;;;8.70;7.93;;;;;;;;;;4955741;28;20537;-64
2023/09/09 00:42:52;;;;;;;12.07;8.13;;;;;;;;;;4955586;28;20448;-64
2023/09/09 00:45:18;;;;;;;10.13;7.63;;;;;;;;;;4954256;29;21105;-64
2023/09/09 00:47:45;;;;;;;7.70;7.10;;;;;;;;;;4954833;28;21039;-64
2023/09/09 00:50:13;;;;;;;13.23;7.97;;;;;;;;;;4955416;28;20907;-64
2023/09/09 00:52:42;;;;;;;9.20;8.10;;;;;;;;;;4955478;28;20920;-64
2023/09/09 00:55:11;;;;;;;9.33;8.50;;;;;;;;;;4955301;28;20453;-64
2023/09/09 00:57:39;;;;;;;7.93;7.33;;;;;;;;;;4955444;28;20447;-64
2023/09/09 01:00:11;;;;;;;8.57;7.87;;;;;;;;;;4955294;28;20413;-64
2023/09/09 01:02:38;;;;;;;12.27;8.37;;;;;;;;;;4955353;28;20623;-64
2023/09/09 01:05:05;;;;;;;8.60;7.90;;;;;;;;;;4955290;28;20425;-64
2023/09/09 01:07:47;;;;;;;9.83;8.20;;;;;;;;;;4955205;28;20531;-64
2023/09/09 01:10:16;;;;;;;7.90;7.30;;;;;;;;;;4955032;28;20420;-64
2023/09/09 01:12:46;;;;;;;11.30;8.37;;;;;;;;;;4955186;28;20431;-64
2023/09/09 01:15:14;;;;;;;8.50;7.87;;;;;;;;;;4954925;28;20451;-64
2023/09/09 01:17:43;;;;;;;8.40;7.53;;;;;;;;;;4954484;28;20426;-64
2023/09/09 01:20:14;;;;;;;10.13;8.57;;;;;;;;;;4954689;28;20487;-64
2023/09/09 01:22:44;;;;;;;9.37;8.30;;;;;;;;;;4954921;28;20411;-64
2023/09/09 01:25:13;;;;;;;9.10;8.30;;;;;;;;;;4954827;28;20448;-64
2023/09/09 01:27:40;;;;;;;7.80;7.07;;;;;;;;;;4954745;28;20473;-64
2023/09/09 01:30:06;;;;;;;8.73;8.10;;;;;;;;;;4954494;28;20946;-64
2023/09/09 01:32:32;;;;;;;9.90;7.40;;;;;;;;;;4954787;28;20683;-64
2023/09/09 01:34:58;;;;;;;8.00;7.50;;;;;;;;;;4954546;28;20950;-64
2023/09/09 01:37:24;;;;;;;8.63;7.83;;;;;;;;;;4954589;28;20465;-64
2023/09/09 01:39:50;;;;;;;8.20;7.20;;;;;;;;;;4954619;28;20506;-64
2023/09/09 01:42:16;;;;;;;7.80;7.10;;;;;;;;;;4954656;28;20416;-64
2023/09/09 01:44:48;;;;;;;8.00;7.40;;;;;;;;;;4954031;28;20450;-64
2023/09/09 01:47:14;;;;;;;8.87;8.27;;;;;;;;;;4954064;28;20572;-64
2023/09/09 01:49:41;;;;;;;8.93;8.20;;;;;;;;;;4954878;28;20415;-64
2023/09/09 01:52:07;;;;;;;8.70;7.90;;;;;;;;;;4954363;28;20452;-64
2023/09/09 01:54:33;;;;;;;13.93;7.40;;;;;;;;;;4954478;28;20792;-64
2023/09/09 01:56:59;;;;;;;8.20;7.53;;;;;;;;;;4954486;28;20483;-64
2023/09/09 01:59:26;;;;;;;9.27;8.40;;;;;;;;;;4954340;28;20839;-64
2023/09/09 02:01:54;;;;;;;9.03;8.33;;;;;;;;;;4954482;28;20436;-64
2023/09/09 02:04:20;;;;;;;9.07;7.70;;;;;;;;;;4954155;28;20969;-64
2023/09/09 02:06:46;;;;;;;8.50;7.80;;;;;;;;;;4954264;28;20471;-64
2023/09/09 02:09:12;;;;;;;8.50;7.90;;;;;;;;;;4954288;28;20437;-64
2023/09/09 02:11:41;;;;;;;8.57;7.93;;;;;;;;;;4954236;28;20427;-64
2023/09/09 02:14:07;;;;;;;8.37;7.77;;;;;;;;;;4954288;28;20501;-64
2023/09/09 02:16:33;;;;;;;9.00;8.17;;;;;;;;;;4954226;28;20499;-64
2023/09/09 02:18:58;;;;;;;9.27;8.50;;;;;;;;;;4954113;28;20934;-64
2023/09/09 02:21:24;;;;;;;8.73;7.93;;;;;;;;;;4953819;28;20509;-64
2023/09/09 02:23:53;;;;;;;10.57;8.90;;;;;;;;;;4954167;28;20416;-64
2023/09/09 02:26:19;;;;;;;8.97;8.10;;;;;;;;;;4953846;28;20474;-64
2023/09/09 02:28:46;;;;;;;9.37;8.47;;;;;;;;;;4953708;28;20430;-64
2023/09/09 02:31:12;;;;;;;9.23;8.47;;;;;;;;;;4954095;28;20450;-64
2023/09/09 02:33:38;;;;;;;8.70;8.20;;;;;;;;;;4953913;28;20450;-64
2023/09/09 02:36:04;;;;;;;9.20;8.37;;;;;;;;;;4953918;28;20864;-64
2023/09/09 02:38:33;;;;;;;9.63;8.37;;;;;;;;;;4953810;28;20500;-64
2023/09/09 02:41:02;;;;;;;9.00;8.20;;;;;;;;;;4954024;28;20516;-64
2023/09/09 02:43:28;;;;;;;9.50;8.80;;;;;;;;;;4953849;28;20431;-64
2023/09/09 02:45:54;;;;;;;9.07;8.37;;;;;;;;;;4952776;28;20480;-64
2023/09/09 02:48:22;;;;;;;15.37;8.60;;;;;;;;;;4952586;28;20451;-64
2023/09/09 02:50:48;;;;;;;10.90;8.80;;;;;;;;;;4954003;28;20547;-64
2023/09/09 02:53:14;;;;;;;11.20;8.10;;;;;;;;;;4953920;28;20521;-64
2023/09/09 02:55:40;;;;;;;7.80;7.30;;;;;;;;;;4954813;28;20423;-64
2023/09/09 02:58:06;;;;;;;9.17;8.10;;;;;;;;;;4957506;28;20679;-64
2023/09/09 03:00:32;;;;;;;8.33;7.63;;;;;;;;;;4957518;28;20441;-64
2023/09/09 03:02:58;;;;;;;10.27;7.20;;;;;;;;;;4957462;28;20889;-64
2023/09/09 03:05:24;;;;;;;8.10;7.47;;;;;;;;;;4957261;28;20451;-64
2023/09/09 03:07:50;;;;;;;8.83;8.23;;;;;;;;;;4957334;28;20833;-64
2023/09/09 03:10:16;;;;;;;8.50;7.77;;;;;;;;;;4957310;28;20435;-64
2023/09/09 03:12:42;;;;;;;9.67;8.50;;;;;;;;;;4957374;28;20886;-64
2023/09/09 03:15:09;;;;;;;10.27;8.23;;;;;;;;;;4957282;28;20449;-64
2023/09/09 03:17:35;;;;;;;8.80;8.00;;;;;;;;;;4956794;28;20418;-64
2023/09/09 03:20:05;;;;;;;11.80;7.93;;;;;;;;;;4956729;28;20534;-64
2023/09/09 03:22:33;;;;;;;10.77;8.77;;;;;;;;;;4956806;28;20426;-64
2023/09/09 03:24:59;;;;;;;8.87;8.20;;;;;;;;;;4957363;28;20410;-64
2023/09/09 03:27:27;;;;;;;9.13;8.30;;;;;;;;;;4956856;28;20478;-64
2023/09/09 03:29:53;;;;;;;9.07;8.37;;;;;;;;;;4957022;28;20425;-64
2023/09/09 03:32:19;;;;;;;10.17;8.90;;;;;;;;;;4955793;28;20429;-64
2023/09/09 03:34:45;;;;;;;8.80;8.10;;;;;;;;;;4956925;28;20437;-64
2023/09/09 03:37:11;;;;;;;10.93;8.90;;;;;;;;;;4956955;28;20483;-64
2023/09/09 03:39:37;;;;;;;8.30;7.70;;;;;;;;;;4956933;28;20870;-64
2023/09/09 03:42:03;;;;;;;9.60;8.60;;;;;;;;;;4956934;28;20442;-64
2023/09/09 03:44:31;;;;;;;8.50;7.73;;;;;;;;;;4956812;28;20966;-64
2023/09/09 03:46:57;;;;;;;10.30;8.60;;;;;;;;;;4956525;28;20480;-64
2023/09/09 03:49:26;;;;;;;9.07;8.37;;;;;;;;;;4956759;28;20437;-64
2023/09/09 03:51:52;;;;;;;9.93;9.07;;;;;;;;;;4956611;28;20485;-64
2023/09/09 03:54:18;;;;;;;8.97;8.17;;;;;;;;;;4956670;28;20411;-64
2023/09/09 03:56:44;;;;;;;8.83;8.13;;;;;;;;;;4956544;28;20416;-64
2023/09/09 03:59:10;;;;;;;10.67;8.80;;;;;;;;;;4956696;28;20985;-64
2023/09/09 04:01:36;;;;;;;9.87;8.87;;;;;;;;;;4956386;28;20425;-64
2023/09/09 04:04:02;;;;;;;9.33;8.63;;;;;;;;;;4956372;28;20446;-64
2023/09/09 04:06:28;;;;;;;10.23;9.50;;;;;;;;;;4956039;28;20544;-64
2023/09/09 04:08:58;;;;;;;9.63;8.83;;;;;;;;;;4955714;28;20403;-64
2023/09/09 04:11:24;;;;;;;10.90;9.80;;;;;;;;;;4956237;28;20458;-64
2023/09/09 04:13:50;;;;;;;9.33;8.60;;;;;;;;;;4956332;28;20920;-64
2023/09/09 04:16:19;;;;;;;10.83;8.60;;;;;;;;;;4956258;28;20435;-64
2023/09/09 04:18:45;;;;;;;9.70;8.40;;;;;;;;;;4956447;28;20480;-64
2023/09/09 04:21:13;;;;;;;10.60;9.57;;;;;;;;;;4956302;28;20497;-64
2023/09/09 04:23:39;;;;;;;10.67;9.57;;;;;;;;;;4956267;28;20917;-64
2023/09/09 04:26:06;;;;;;;10.10;9.30;;;;;;;;;;4956013;28;20550;-64
2023/09/09 04:28:32;;;;;;;10.40;9.17;;;;;;;;;;4956060;28;20817;-64
2023/09/09 04:30:58;;;;;;;11.97;9.07;;;;;;;;;;4955782;28;20418;-64
2023/09/09 04:33:24;;;;;;;9.93;9.00;;;;;;;;;;4954491;28;20445;-64
2023/09/09 04:35:50;;;;;;;14.23;8.87;;;;;;;;;;4955959;28;20418;-64
2023/09/09 04:38:19;;;;;;;9.80;9.00;;;;;;;;;;4954579;28;20776;-64
2023/09/09 04:40:45;;;;;;;10.17;9.13;;;;;;;;;;4955965;28;20401;-64
2023/09/09 04:43:11;;;;;;;10.37;8.50;;;;;;;;;;4955739;28;20444;-64
2023/09/09 04:45:39;;;;;;;13.13;8.23;;;;;;;;;;4954547;28;20426;-64
2023/09/09 04:48:06;;;;;;;9.23;8.43;;;;;;;;;;4955697;28;20444;-64
2023/09/09 04:50:32;;;;;;;10.23;9.23;;;;;;;;;;4955508;28;21037;-64
2023/09/09 04:52:58;;;;;;;8.43;7.93;;;;;;;;;;4955488;28;20498;-64
2023/09/09 04:55:24;;;;;;;8.77;8.10;;;;;;;;;;4955426;28;20953;-64
2023/09/09 04:57:50;;;;;;;10.20;8.90;;;;;;;;;;4955508;28;20444;-64
2023/09/09 05:00:16;;;;;;;11.30;9.30;;;;;;;;;;4955324;28;20459;-64
2023/09/09 05:02:42;;;;;;;12.40;9.10;;;;;;;;;;4955343;28;20437;-64
2023/09/09 05:05:09;;;;;;;9.63;8.83;;;;;;;;;;4955262;28;20458;-64
2023/09/09 05:07:36;;;;;;;8.60;7.83;;;;;;;;;;4955505;28;20505;-64
2023/09/09 05:10:04;;;;;;;10.13;9.00;;;;;;;;;;4953793;28;20968;-64
2023/09/09 05:12:30;;;;;;;14.90;9.47;;;;;;;;;;4955282;28;20990;-64
2023/09/09 05:14:58;;;;;;;9.17;8.37;;;;;;;;;;4955083;28;20767;-64
2023/09/09 05:17:24;;;;;;;9.90;8.20;;;;;;;;;;4955143;28;20508;-64
2023/09/09 05:19:50;;;;;;;9.73;8.53;;;;;;;;;;4954192;28;20422;-64
2023/09/09 05:22:16;;;;;;;9.20;8.43;;;;;;;;;;4953722;28;20788;-64
2023/09/09 05:24:42;;;;;;;9.37;8.67;;;;;;;;;;4953786;28;20505;-64
2023/09/09 05:27:08;;;;;;;10.13;9.33;;;;;;;;;;4954932;28;20477;-64
2023/09/09 05:29:34;;;;;;;10.40;8.80;;;;;;;;;;4954605;28;20429;-64
2023/09/09 05:32:00;;;;;;;9.57;8.63;;;;;;;;;;4954929;28;20413;-64
2023/09/09 05:34:29;;;;;;;10.00;9.13;;;;;;;;;;4954770;28;20443;-64
2023/09/09 05:36:55;;;;;;;9.20;8.60;;;;;;;;;;4954751;28;20907;-64
2023/09/09 05:39:21;;;;;;;9.60;8.67;;;;;;;;;;4954360;28;20505;-63
2023/09/09 05:41:47;;;;;;;10.27;8.20;;;;;;;;;;4954375;28;20899;-63
2023/09/09 05:44:13;;;;;;;14.57;8.63;;;;;;;;;;4954480;28;20439;-63
2023/09/09 05:46:39;;;;;;;9.57;8.77;;;;;;;;;;4954605;28;20529;-63
2023/09/09 05:49:05;;;;;;;9.00;8.20;;;;;;;;;;4954435;28;20797;-63
2023/09/09 05:51:31;;;;;;;9.10;8.40;;;;;;;;;;4954492;28;20425;-63
2023/09/09 05:53:57;;;;;;;8.57;7.73;;;;;;;;;;4954342;28;20411;-63
2023/09/09 05:56:25;;;;;;;9.50;8.60;;;;;;;;;;4954645;28;20486;-63
2023/09/09 05:58:51;;;;;;;10.93;8.17;;;;;;;;;;4954681;28;20431;-63
2023/09/09 06:01:19;;;;;;;15.17;8.13;;;;;;;;;;4954331;28;20412;-63
2023/09/09 06:03:45;;;;;;;13.20;8.43;;;;;;;;;;4954404;28;20412;-63
2023/09/09 06:06:11;;;;;;;8.97;8.13;;;;;;;;;;4954174;28;20851;-63
2023/09/09 06:08:38;;;;;;;8.43;7.73;;;;;;;;;;4954620;28;20547;-63
2023/09/09 06:11:04;;;;;;;8.70;8.00;;;;;;;;;;4954398;28;20428;-63
2023/09/09 06:13:30;;;;;;;8.77;7.93;;;;;;;;;;4954025;28;20523;-63
2023/09/09 06:15:56;;;;;;;9.13;8.53;;;;;;;;;;4954132;28;20506;-63
2023/09/09 06:18:22;;;;;;;9.07;8.37;;;;;;;;;;4954111;28;20419;-63
2023/09/09 06:20:48;;;;;;;16.30;9.80;;;;;;;;;;4954202;28;20952;-63
2023/09/09 06:23:15;;;;;;;28.63;24.70;;;;;;;;;;4954281;28;20827;-64
2023/09/09 06:25:41;;;;;;;11.40;10.50;;;;;;;;;;4954219;28;20461;-64
2023/09/09 06:28:09;;;;;;;11.03;10.03;;;;;;;;;;4953940;28;20468;-64
2023/09/09 06:30:35;;;;;;;13.00;11.83;;;;;;;;;;4955896;28;20451;-64
2023/09/09 06:33:04;;;;;;;11.70;10.60;;;;;;;;;;4960532;28;20406;-64
2023/09/09 06:35:32;;;;;;;45.47;39.70;;;;;;;;;;4960375;28;20449;-64
2023/09/09 06:37:58;;;;;;;19.83;16.70;;;;;;;;;;4960378;28;20938;-64
2023/09/09 06:40:24;;;;;;;13.97;12.67;;;;;;;;;;4959110;29;20421;-64
2023/09/09 06:42:50;;;;;;;17.07;12.67;;;;;;;;;;4960357;28;20418;-64
2023/09/09 06:45:16;;;;;;;13.37;12.07;;;;;;;;;;4960375;28;20458;-64
2023/09/09 06:47:45;;;;;;;11.93;10.80;;;;;;;;;;4959863;28;20525;-64
2023/09/09 06:50:13;;;;;;;10.60;9.70;;;;;;;;;;4960596;28;20426;-64
2023/09/09 06:52:39;;;;;;;14.03;10.17;;;;;;;;;;4960428;28;20438;-64
2023/09/09 06:55:06;;;;;;;10.27;9.37;;;;;;;;;;4959873;28;20466;-68
2023/09/09 06:57:35;;;;;;;14.00;10.10;;;;;;;;;;4960084;28;20498;-67
2023/09/09 07:00:01;;;;;;;9.60;8.67;;;;;;;;;;4960057;28;20425;-67
2023/09/09 07:02:27;;;;;;;10.33;9.20;;;;;;;;;;4958575;28;20437;-67
2023/09/09 07:04:54;;;;;;;10.47;9.37;;;;;;;;;;4960192;28;20436;-68
2023/09/09 07:07:20;;;;;;;22.27;19.93;;;;;;;;;;4960046;28;20886;-67
2023/09/09 07:09:45;;;;;;;11.83;10.80;;;;;;;;;;4960073;28;20541;-68
2023/09/09 07:12:11;;;;;;;10.77;9.87;;;;;;;;;;4960019;28;20521;-68
2023/09/09 07:14:37;;;;;;;14.13;11.30;;;;;;;;;;4959656;28;20443;-68
2023/09/09 07:17:06;;;;;;;13.40;10.60;;;;;;;;;;4959972;28;20428;-67
2023/09/09 07:19:32;;;;;;;10.60;9.53;;;;;;;;;;4959663;28;20426;-67
2023/09/09 07:22:00;;;;;;;12.10;10.80;;;;;;;;;;4959718;28;21893;-67
2023/09/09 07:24:26;;;;;;;11.00;9.87;;;;;;;;;;4959951;28;20543;-67
2023/09/09 07:26:54;;;;;;;10.73;9.73;;;;;;;;;;4959685;28;21023;-67
2023/09/09 07:29:21;;;;;;;12.27;9.87;;;;;;;;;;4960009;28;20906;-67
2023/09/09 07:31:47;;;;;;;10.60;9.80;;;;;;;;;;4959813;28;20953;-67
2023/09/09 07:34:13;;;;;;;9.37;8.47;;;;;;;;;;4959856;28;20664;-67
2023/09/09 07:36:39;;;;;;;13.33;9.47;;;;;;;;;;4959750;28;20442;-68
2023/09/09 07:39:04;;;;;;;10.00;9.10;;;;;;;;;;4959320;28;20787;-68
2023/09/09 07:41:30;;;;;;;10.60;9.60;;;;;;;;;;4959311;28;20426;-68
2023/09/09 07:43:59;;;;;;;10.37;9.50;;;;;;;;;;4956157;28;20434;-68
2023/09/09 07:46:28;;;;;;;9.63;8.63;;;;;;;;;;4956260;28;20957;-68
2023/09/09 07:48:54;;;;;;;27.13;24.13;;;;;;;;;;4955172;28;20869;-68
2023/09/09 07:51:20;;;;;;;9.50;8.80;;;;;;;;;;4956452;28;20454;-67
2023/09/09 07:53:46;;;;;;;11.73;10.27;;;;;;;;;;4956486;28;20437;-67
2023/09/09 07:56:15;;;;;;;11.40;8.90;;;;;;;;;;4956596;28;20424;-67
2023/09/09 07:58:41;;;;;;;10.20;9.30;;;;;;;;;;4956491;28;20427;-67
2023/09/09 08:01:07;;;;;;;12.47;9.77;;;;;;;;;;4956633;28;20435;-67
2023/09/09 08:03:36;;;;;;;10.03;9.03;;;;;;;;;;4956477;28;20423;-67
2023/09/09 08:06:06;;;;;;;9.93;8.97;;;;;;;;;;4956377;28;20426;-67
2023/09/09 08:08:31;;;;;;;22.20;19.90;;;;;;;;;;4956417;28;20413;-67
2023/09/09 08:11:00;;;;;;;11.00;8.80;;;;;;;;;;4956560;28;20763;-67
2023/09/09 08:13:26;;;;;;;9.53;8.57;;;;;;;;;;4956276;28;20418;-67
2023/09/09 08:15:52;;;;;;;9.43;8.30;;;;;;;;;;4956172;28;20928;-67
2023/09/09 08:18:18;;;;;;;9.77;8.23;;;;;;;;;;4956225;28;20872;-67
2023/09/09 08:20:44;;;;;;;11.00;8.43;;;;;;;;;;4954758;28;20488;-67
2023/09/09 08:23:12;;;;;;;8.83;8.00;;;;;;;;;;4956218;28;20759;-67
2023/09/09 08:25:41;;;;;;;9.70;8.70;;;;;;;;;;4956537;28;20891;-67
2023/09/09 08:28:07;;;;;;;9.23;8.20;;;;;;;;;;4955876;28;20533;-67
2023/09/09 08:30:33;;;;;;;31.43;26.73;;;;;;;;;;4955906;28;20830;-67
2023/09/09 08:32:59;;;;;;;10.67;9.73;;;;;;;;;;4954473;28;20445;-67
2023/09/09 08:35:25;;;;;;;13.80;8.60;;;;;;;;;;4955967;28;20490;-67
2023/09/09 08:37:51;;;;;;;10.67;8.27;;;;;;;;;;4955864;28;20906;-67
2023/09/09 08:40:17;;;;;;;8.20;7.70;;;;;;;;;;4955562;28;20477;-68
2023/09/09 08:43:04;;;;;;;36.97;32.40;;;;;;;;;;4955687;28;20422;-68
2023/09/09 08:45:33;;;;;;;48.60;43.63;;;;;;;;;;4956107;28;20419;-68
2023/09/09 08:48:01;;;;;;;10.97;8.93;;;;;;;;;;4955639;28;20569;-68
2023/09/09 08:50:28;;;;;;;8.43;7.57;;;;;;;;;;4955675;28;20423;-68
2023/09/09 08:52:55;;;;;;;9.23;7.73;;;;;;;;;;4955443;28;20435;-68
2023/09/09 08:55:21;;;;;;;8.20;7.40;;;;;;;;;;4955180;28;20454;-68
2023/09/09 08:57:48;;;;;;;10.30;8.20;;;;;;;;;;4953975;28;20510;-68
2023/09/09 09:00:15;;;;;;;8.07;7.37;;;;;;;;;;4955265;28;20434;-68
2023/09/09 09:02:43;;;;;;;8.60;7.70;;;;;;;;;;4955497;28;20448;-68
2023/09/09 09:05:10;;;;;;;8.37;7.77;;;;;;;;;;4955091;28;20428;-68
2023/09/09 09:07:36;;;;;;;8.47;7.83;;;;;;;;;;4955221;28;20474;-68
2023/09/09 09:10:04;;;;;;;8.27;7.43;;;;;;;;;;4953727;28;20916;-68
2023/09/09 09:12:31;;;;;;;7.50;7.00;;;;;;;;;;4955112;28;20440;-68
2023/09/09 09:14:57;;;;;;;10.67;7.90;;;;;;;;;;4955475;28;20767;-69
2023/09/09 09:17:28;;;;;;;7.40;6.90;;;;;;;;;;4955159;28;20447;-69
2023/09/09 09:19:55;;;;;;;11.53;6.60;;;;;;;;;;4955400;28;20431;-69
2023/09/09 09:22:24;;;;;;;7.40;6.80;;;;;;;;;;4954982;28;20443;-69
2023/09/09 09:24:52;;;;;;;9.40;7.53;;;;;;;;;;4955001;28;20851;-69
2023/09/09 09:27:18;;;;;;;8.40;7.50;;;;;;;;;;4954877;28;20478;-69
2023/09/09 09:29:48;;;;;;;6.73;6.03;;;;;;;;;;4954962;28;20407;-68
2023/09/09 09:32:16;;;;;;;7.33;6.70;;;;;;;;;;4953673;28;20428;-68
2023/09/09 09:34:44;;;;;;;7.23;6.80;;;;;;;;;;4955299;28;20790;-68
2023/09/09 09:37:10;;;;;;;7.73;7.03;;;;;;;;;;4954498;28;20527;-68
2023/09/09 09:39:36;;;;;;;9.90;6.57;;;;;;;;;;4953766;28;20909;-68
2023/09/09 09:42:03;;;;;;;7.50;7.00;;;;;;;;;;4954906;28;20502;-68
2023/09/09 09:44:29;;;;;;;7.17;6.53;;;;;;;;;;4954733;28;20415;-68
2023/09/09 09:47:01;;;;;;;6.97;6.57;;;;;;;;;;4954316;28;20463;-68
2023/09/09 09:49:37;;;;;;;11.63;7.23;;;;;;;;;;4953302;28;20451;-68
2023/09/09 09:52:03;;;;;;;12.03;7.10;;;;;;;;;;4954717;28;20411;-66
2023/09/09 09:54:33;;;;;;;7.43;6.83;;;;;;;;;;4953475;28;20933;-67
2023/09/09 09:57:02;;;;;;;7.13;6.53;;;;;;;;;;4954474;28;20452;-67
2023/09/09 09:59:32;;;;;;;11.57;7.07;;;;;;;;;;4954785;28;20431;-67
2023/09/09 10:02:03;;;;;;;7.17;6.43;;;;;;;;;;4954748;28;20416;-66
2023/09/09 10:04:30;;;;;;;7.80;7.30;;;;;;;;;;4954651;28;20939;-66
2023/09/09 10:06:57;;;;;;;8.73;7.50;;;;;;;;;;4954063;28;20481;-66
2023/09/09 10:09:29;;;;;;;8.13;6.43;;;;;;;;;;4954641;28;20419;-66
2023/09/09 10:11:58;;;;;;;8.57;5.60;;;;;;;;;;4954302;28;20416;-66
2023/09/09 10:14:25;;;;;;;7.57;6.63;;;;;;;;;;4954598;28;20900;-68
2023/09/09 10:16:55;;;;;;;6.60;6.10;;;;;;;;;;4952989;28;20439;-67
2023/09/09 10:19:22;;;;;;;7.07;6.43;;;;;;;;;;4952890;28;20420;-67
2023/09/09 10:21:51;;;;;;;9.73;5.90;;;;;;;;;;4954521;28;20447;-67
2023/09/09 10:24:18;;;;;;;7.03;6.43;;;;;;;;;;4954524;28;20490;-67
2023/09/09 10:26:47;;;;;;;7.00;6.50;;;;;;;;;;4954459;28;20470;-67
2023/09/09 10:29:15;;;;;;;7.97;6.83;;;;;;;;;;4954075;28;20451;-67
2023/09/09 10:31:41;;;;;;;9.07;5.80;;;;;;;;;;4954384;28;20411;-67
2023/09/09 10:34:09;;;;;;;10.17;5.83;;;;;;;;;;4954146;28;20897;-67
2023/09/09 10:36:36;;;;;;;14.10;6.30;;;;;;;;;;4954072;28;20930;-67
2023/09/09 10:39:02;;;;;;;14.53;6.33;;;;;;;;;;4954433;28;20415;-67
2023/09/09 10:41:32;;;;;;;6.13;5.73;;;;;;;;;;4954314;28;20543;-67
2023/09/09 10:43:58;;;;;;;6.93;6.10;;;;;;;;;;4953973;28;20418;-67
2023/09/09 10:46:33;;;;;;;7.13;6.07;;;;;;;;;;4953843;28;20843;-67
2023/09/09 10:49:03;;;;;;;6.47;5.80;;;;;;;;;;4953055;29;20535;-67
2023/09/09 10:51:29;;;;;;;6.17;5.67;;;;;;;;;;4954555;28;20444;-67
2023/09/09 10:54:13;;;;;;;6.03;5.53;;;;;;;;;;4954385;28;20420;-67
2023/09/09 10:56:46;;;;;;;7.20;5.53;;;;;;;;;;4954562;28;20451;-67
2023/09/09 10:59:19;;;;;;;10.70;5.73;;;;;;;;;;4954205;28;20416;-67
2023/09/09 11:01:46;;;;;;;10.60;6.07;;;;;;;;;;4954083;28;20416;-67
2023/09/09 11:04:23;;;;;;;8.10;6.50;;;;;;;;;;4954174;28;20527;-68
2023/09/09 11:07:18;;;;;;;6.00;5.70;;;;;;;;;;4953944;28;20474;-68
2023/09/09 11:09:51;;;;;;;6.03;5.57;;;;;;;;;;4953353;29;20942;-68
2023/09/09 11:12:17;;;;;;;6.10;5.50;;;;;;;;;;4953739;28;20442;-68
2023/09/09 11:14:58;;;;;;;8.50;6.33;;;;;;;;;;4954147;28;20412;-68
2023/09/09 11:17:28;;;;;;;6.37;5.87;;;;;;;;;;4954129;28;20438;-68
2023/09/09 11:19:54;;;;;;;8.20;5.87;;;;;;;;;;4956366;28;20434;-67
2023/09/09 11:22:21;;;;;;;6.53;5.30;;;;;;;;;;4957257;28;20454;-68
2023/09/09 11:24:47;;;;;;;6.50;5.70;;;;;;;;;;4957681;28;20419;-68
2023/09/09 11:27:13;;;;;;;8.07;5.30;;;;;;;;;;4956446;28;20557;-68
2023/09/09 11:29:39;;;;;;;5.27;4.97;;;;;;;;;;4957418;28;20423;-68
2023/09/09 11:32:09;;;;;;;5.60;5.20;;;;;;;;;;4957456;28;20447;-68
2023/09/09 11:34:37;;;;;;;6.10;5.27;;;;;;;;;;4956841;28;20423;-68
2023/09/09 11:37:04;;;;;;;6.60;5.93;;;;;;;;;;4957028;28;20450;-68
2023/09/09 11:39:30;;;;;;;8.57;5.40;;;;;;;;;;4956979;28;20419;-68
2023/09/09 11:41:56;;;;;;;5.60;5.17;;;;;;;;;;4957118;28;20450;-68
2023/09/09 11:44:22;;;;;;;6.20;5.70;;;;;;;;;;4956770;28;20422;-68
2023/09/09 11:46:51;;;;;;;5.40;5.00;;;;;;;;;;4956834;28;20466;-68
2023/09/09 11:49:18;;;;;;;6.87;6.40;;;;;;;;;;4957052;28;20499;-68
2023/09/09 11:51:46;;;;;;;8.70;5.60;;;;;;;;;;4957389;28;20518;-68
2023/09/09 11:54:12;;;;;;;5.90;5.37;;;;;;;;;;4957068;28;20529;-68
2023/09/09 11:56:41;;;;;;;7.80;5.10;;;;;;;;;;4955466;28;20430;-68
2023/09/09 11:59:12;;;;;;;12.47;5.37;;;;;;;;;;4956975;28;20430;-68
2023/09/09 12:01:44;;;;;;;9.23;4.53;;;;;;;;;;4956792;28;20455;-68
2023/09/09 12:04:11;;;;;;;7.30;5.10;;;;;;;;;;4956945;28;20829;-68
2023/09/09 12:06:38;;;;;;;5.63;4.97;;;;;;;;;;4956695;28;20514;-68
2023/09/09 12:09:05;;;;;;;5.07;4.67;;;;;;;;;;4956821;28;20842;-68
2023/09/09 12:11:32;;;;;;;7.20;5.17;;;;;;;;;;4956665;28;20407;-68
2023/09/09 12:14:00;;;;;;;9.77;8.30;;;;;;;;;;4956856;28;20400;-68
2023/09/09 12:16:26;;;;;;;5.67;4.97;;;;;;;;;;4956479;28;20468;-68
2023/09/09 12:18:55;;;;;;;6.83;4.60;;;;;;;;;;4956686;28;20442;-67
2023/09/09 12:21:23;;;;;;;5.93;4.83;;;;;;;;;;4956294;28;20428;-67
2023/09/09 12:23:49;;;;;;;5.40;5.00;;;;;;;;;;4954942;28;20435;-67
2023/09/09 12:26:16;;;;;;;6.33;4.90;;;;;;;;;;4956388;28;20441;-68
2023/09/09 12:28:47;;;;;;;9.70;4.83;;;;;;;;;;4954772;28;20438;-68
2023/09/09 12:31:18;;;;;;;5.00;4.70;;;;;;;;;;4956521;28;20903;-68
2023/09/09 12:33:48;;;;;;;4.27;3.93;;;;;;;;;;4956061;28;20927;-69
2023/09/09 12:36:18;;;;;;;4.13;4.00;;;;;;;;;;4955081;28;20416;-69
2023/09/09 12:38:46;;;;;;;9.03;4.70;;;;;;;;;;4954557;28;20428;-69
2023/09/09 12:41:12;;;;;;;6.27;5.57;;;;;;;;;;4956059;28;20412;-69
2023/09/09 12:43:38;;;;;;;7.23;5.27;;;;;;;;;;4955823;28;20424;-69
2023/09/09 12:46:05;;;;;;;10.50;4.77;;;;;;;;;;4954483;28;20794;-69
2023/09/09 12:48:32;;;;;;;4.70;4.60;;;;;;;;;;4954075;28;20915;-68
2023/09/09 12:50:58;;;;;;;5.23;4.70;;;;;;;;;;4956039;28;20826;-68
2023/09/09 12:53:28;;;;;;;6.53;5.40;;;;;;;;;;4955878;28;20814;-69
2023/09/09 12:55:57;;;;;;;6.60;4.90;;;;;;;;;;4955584;28;20434;-69
2023/09/09 12:58:23;;;;;;;7.80;5.57;;;;;;;;;;4955677;28;20864;-69
2023/09/09 13:00:49;;;;;;;4.83;4.63;;;;;;;;;;4955295;28;20523;-69
2023/09/09 13:03:15;;;;;;;4.77;4.40;;;;;;;;;;4955605;28;20440;-68
2023/09/09 13:05:40;;;;;;;7.97;4.70;;;;;;;;;;4955580;28;20184;-68
2023/09/09 13:08:06;;;;;;;10.80;5.37;;;;;;;;;;4955400;28;20223;-69
2023/09/09 13:10:32;;;;;;;9.80;5.20;;;;;;;;;;4955554;28;20530;-69
2023/09/09 13:12:58;;;;;;;4.87;4.57;;;;;;;;;;4955538;28;20204;-69
2023/09/09 13:15:25;;;;;;;5.33;5.00;;;;;;;;;;4955209;28;20183;-68
2023/09/09 13:17:52;;;;;;;6.40;4.80;;;;;;;;;;4955088;28;20580;-69
2023/09/09 13:20:18;;;;;;;5.00;4.70;;;;;;;;;;4954142;28;20439;-69
2023/09/09 13:22:44;;;;;;;5.20;4.30;;;;;;;;;;4955081;28;20538;-69
2023/09/09 13:25:10;;;;;;;4.27;3.93;;;;;;;;;;4955460;28;20511;-69
2023/09/09 13:27:39;;;;;;;4.70;4.47;;;;;;;;;;4955042;28;20275;-69
2023/09/09 13:30:06;;;;;;;6.50;5.30;;;;;;;;;;4954858;28;20192;-65
2023/09/09 13:32:34;;;;;;;5.70;5.13;;;;;;;;;;4954236;29;20898;-62
2023/09/09 13:35:02;;;;;;;5.07;4.67;;;;;;;;;;4954087;28;20427;-62
2023/09/09 13:37:28;;;;;;;5.70;5.20;;;;;;;;;;4954897;28;20800;-63
2023/09/09 13:39:54;;;;;;;7.00;6.10;;;;;;;;;;4954318;28;20412;-72
2023/09/09 13:42:21;;;;;;;10.30;4.40;;;;;;;;;;4955178;28;20466;-66
2023/09/09 13:44:47;;;;;;;9.13;4.20;;;;;;;;;;4955113;28;20482;-68
2023/09/09 13:47:13;;;;;;;6.93;4.60;;;;;;;;;;4954982;28;20980;-66
2023/09/09 13:49:39;;;;;;;4.37;4.27;;;;;;;;;;4954996;28;20247;-64
2023/09/09 13:52:08;;;;;;;4.73;4.53;;;;;;;;;;4955156;28;20176;-66
2023/09/09 13:54:34;;;;;;;5.23;4.73;;;;;;;;;;4954789;28;20427;-65
2023/09/09 13:57:01;;;;;;;5.27;4.77;;;;;;;;;;4953628;28;20442;-66
2023/09/09 13:59:30;;;;;;;5.27;4.83;;;;;;;;;;4954740;28;20439;-67
2023/09/09 14:01:56;;;;;;;4.70;4.30;;;;;;;;;;4953384;28;20440;-66
2023/09/09 14:04:23;;;;;;;6.37;4.40;;;;;;;;;;4954994;28;20435;-65
2023/09/09 14:06:49;;;;;;;4.40;4.10;;;;;;;;;;4954140;28;20558;-65
2023/09/09 14:09:17;;;;;;;4.90;4.60;;;;;;;;;;4953926;28;20841;-65
2023/09/09 14:11:46;;;;;;;5.10;4.60;;;;;;;;;;4954752;28;20796;-65
2023/09/09 14:14:14;;;;;;;1343.30;834.13;;;;;;;;;;4954469;28;20487;-67
2023/09/09 14:16:40;;;;;;;103.07;79.37;;;;;;;;;;4954666;28;20904;-66
2023/09/09 14:19:06;;;;;;;7.10;6.60;;;;;;;;;;4954240;28;20439;-66
2023/09/09 14:21:34;;;;;;;6.07;5.10;;;;;;;;;;4954286;28;20889;-66
2023/09/09 14:24:00;;;;;;;5.73;4.87;;;;;;;;;;4954242;28;20415;-66
2023/09/09 14:26:27;;;;;;;8.43;4.43;;;;;;;;;;4954252;28;20470;-66
2023/09/09 14:28:53;;;;;;;6.90;4.20;;;;;;;;;;4954009;28;20188;-65
2023/09/09 14:31:22;;;;;;;6.50;4.60;;;;;;;;;;4954531;28;20408;-65
2023/09/09 14:33:48;;;;;;;6.20;3.90;;;;;;;;;;4954138;28;20470;-66
2023/09/09 14:36:17;;;;;;;5.60;5.10;;;;;;;;;;4953048;28;20852;-65
2023/09/09 14:38:43;;;;;;;9.27;5.07;;;;;;;;;;4954465;28;20207;-65